sensor_id;sensor_type;location;lat;lon;timestamp;temperature;humidity
18365;DHT22;9309;52.126;11.616;2023-02-01T00:02:09;5.10;72.90
18365;DHT22;9309;52.126;11.616;2023-02-01T00:04:37;5.10;72.20
18365;DHT22;9309;52.126;11.616;2023-02-01T00:07:04;5.10;72.50
18365;DHT22;9309;52.126;11.616;2023-02-01T00:09:31;5.10;72.50
18365;DHT22;9309;52.126;11.616;2023-02-01T00:12:01;5.10;72.60
18365;DHT22;9309;52.126;11.616;2023-02-01T00:14:31;5.00;72.80
18365;DHT22;9309;52.126;11.616;2023-02-01T00:17:03;5.00;73.00
18365;DHT22;9309;52.126;11.616;2023-02-01T00:19:30;5.00;72.80
18365;DHT22;9309;52.126;11.616;2023-02-01T00:21:58;5.10;72.50
18365;DHT22;9309;52.126;11.616;2023-02-01T00:24:24;5.00;73.00
18365;DHT22;9309;52.126;11.616;2023-02-01T00:26:51;5.00;72.70
18365;DHT22;9309;52.126;11.616;2023-02-01T00:29:18;5.00;73.10
18365;DHT22;9309;52.126;11.616;2023-02-01T00:31:45;5.00;72.90
18365;DHT22;9309;52.126;11.616;2023-02-01T00:34:13;5.00;72.90
18365;DHT22;9309;52.126;11.616;2023-02-01T00:36:40;5.00;72.80
18365;DHT22;9309;52.126;11.616;2023-02-01T00:39:08;5.00;72.70
18365;DHT22;9309;52.126;11.616;2023-02-01T00:41:36;5.00;72.70
18365;DHT22;9309;52.126;11.616;2023-02-01T00:44:02;5.00;72.80
18365;DHT22;9309;52.126;11.616;2023-02-01T00:46:29;5.00;72.70
18365;DHT22;9309;52.126;11.616;2023-02-01T00:48:56;5.10;72.40
18365;DHT22;9309;52.126;11.616;2023-02-01T00:51:23;5.10;72.50
18365;DHT22;9309;52.126;11.616;2023-02-01T00:53:50;5.10;72.60
18365;DHT22;9309;52.126;11.616;2023-02-01T00:56:18;5.10;72.60
18365;DHT22;9309;52.126;11.616;2023-02-01T00:58:45;5.10;72.70
18365;DHT22;9309;52.126;11.616;2023-02-01T01:01:13;5.10;72.80
18365;DHT22;9309;52.126;11.616;2023-02-01T01:03:40;5.00;72.90
18365;DHT22;9309;52.126;11.616;2023-02-01T01:06:08;5.10;72.70
18365;DHT22;9309;52.126;11.616;2023-02-01T01:08:35;5.00;72.50
18365;DHT22;9309;52.126;11.616;2023-02-01T01:11:05;5.10;72.30
18365;DHT22;9309;52.126;11.616;2023-02-01T01:13:34;5.10;72.50
18365;DHT22;9309;52.126;11.616;2023-02-01T01:16:00;5.10;72.60
18365;DHT22;9309;52.126;11.616;2023-02-01T01:18:28;5.10;72.60
18365;DHT22;9309;52.126;11.616;2023-02-01T01:20:55;5.00;72.90
18365;DHT22;9309;52.126;11.616;2023-02-01T01:23:22;5.00;73.20
18365;DHT22;9309;52.126;11.616;2023-02-01T01:25:48;5.00;72.90
18365;DHT22;9309;52.126;11.616;2023-02-01T01:28:15;5.10;72.80
18365;DHT22;9309;52.126;11.616;2023-02-01T01:30:43;5.10;72.80
18365;DHT22;9309;52.126;11.616;2023-02-01T01:33:10;5.10;73.00
18365;DHT22;9309;52.126;11.616;2023-02-01T01:35:38;5.10;72.90
18365;DHT22;9309;52.126;11.616;2023-02-01T01:38:05;5.10;72.80
18365;DHT22;9309;52.126;11.616;2023-02-01T01:40:31;5.10;73.00
18365;DHT22;9309;52.126;11.616;2023-02-01T01:42:59;5.10;73.20
18365;DHT22;9309;52.126;11.616;2023-02-01T01:45:26;5.00;73.60
18365;DHT22;9309;52.126;11.616;2023-02-01T01:47:56;5.00;73.50
18365;DHT22;9309;52.126;11.616;2023-02-01T01:50:24;5.00;73.40
18365;DHT22;9309;52.126;11.616;2023-02-01T01:52:52;5.00;73.50
18365;DHT22;9309;52.126;11.616;2023-02-01T01:55:20;5.00;73.70
18365;DHT22;9309;52.126;11.616;2023-02-01T01:57:50;5.00;73.90
18365;DHT22;9309;52.126;11.616;2023-02-01T02:00:18;5.00;73.70
18365;DHT22;9309;52.126;11.616;2023-02-01T02:02:47;5.00;74.20
18365;DHT22;9309;52.126;11.616;2023-02-01T02:05:15;4.90;74.10
18365;DHT22;9309;52.126;11.616;2023-02-01T02:07:43;4.90;74.20
18365;DHT22;9309;52.126;11.616;2023-02-01T02:10:12;4.90;74.40
18365;DHT22;9309;52.126;11.616;2023-02-01T02:12:39;4.80;74.80
18365;DHT22;9309;52.126;11.616;2023-02-01T02:15:07;4.90;74.60
18365;DHT22;9309;52.126;11.616;2023-02-01T02:17:35;4.90;74.90
18365;DHT22;9309;52.126;11.616;2023-02-01T02:22:53;4.90;74.90
18365;DHT22;9309;52.126;11.616;2023-02-01T02:25:39;4.90;74.90
18365;DHT22;9309;52.126;11.616;2023-02-01T02:28:12;4.90;75.30
18365;DHT22;9309;52.126;11.616;2023-02-01T02:30:52;4.80;75.50
18365;DHT22;9309;52.126;11.616;2023-02-01T02:33:31;4.80;75.70
18365;DHT22;9309;52.126;11.616;2023-02-01T02:36:05;4.80;75.70
18365;DHT22;9309;52.126;11.616;2023-02-01T02:38:35;4.70;76.00
18365;DHT22;9309;52.126;11.616;2023-02-01T02:41:08;4.80;76.00
18365;DHT22;9309;52.126;11.616;2023-02-01T02:43:37;4.80;75.90
18365;DHT22;9309;52.126;11.616;2023-02-01T02:46:28;4.80;75.90
18365;DHT22;9309;52.126;11.616;2023-02-01T02:49:18;4.80;75.90
18365;DHT22;9309;52.126;11.616;2023-02-01T02:51:46;4.80;75.50
18365;DHT22;9309;52.126;11.616;2023-02-01T02:54:33;4.90;75.40
18365;DHT22;9309;52.126;11.616;2023-02-01T02:57:18;4.90;75.40
18365;DHT22;9309;52.126;11.616;2023-02-01T03:00:04;4.90;75.60
18365;DHT22;9309;52.126;11.616;2023-02-01T03:02:49;4.90;75.30
18365;DHT22;9309;52.126;11.616;2023-02-01T03:05:34;4.90;75.40
18365;DHT22;9309;52.126;11.616;2023-02-01T03:08:02;4.90;75.40
18365;DHT22;9309;52.126;11.616;2023-02-01T03:10:32;4.80;75.50
18365;DHT22;9309;52.126;11.616;2023-02-01T03:13:02;4.80;75.80
18365;DHT22;9309;52.126;11.616;2023-02-01T03:15:31;4.80;76.00
18365;DHT22;9309;52.126;11.616;2023-02-01T03:17:58;4.80;76.00
18365;DHT22;9309;52.126;11.616;2023-02-01T03:20:27;4.70;76.40
18365;DHT22;9309;52.126;11.616;2023-02-01T03:22:58;4.70;76.50
18365;DHT22;9309;52.126;11.616;2023-02-01T03:25:26;4.80;76.30
18365;DHT22;9309;52.126;11.616;2023-02-01T03:27:55;4.70;76.10
18365;DHT22;9309;52.126;11.616;2023-02-01T03:30:25;4.70;76.40
18365;DHT22;9309;52.126;11.616;2023-02-01T03:32:53;4.70;76.30
18365;DHT22;9309;52.126;11.616;2023-02-01T03:35:30;4.80;76.10
18365;DHT22;9309;52.126;11.616;2023-02-01T03:38:03;4.80;75.90
18365;DHT22;9309;52.126;11.616;2023-02-01T03:40:32;4.80;75.80
18365;DHT22;9309;52.126;11.616;2023-02-01T03:42:59;4.80;75.80
18365;DHT22;9309;52.126;11.616;2023-02-01T03:45:28;4.70;75.90
18365;DHT22;9309;52.126;11.616;2023-02-01T03:47:58;4.70;76.10
18365;DHT22;9309;52.126;11.616;2023-02-01T03:50:25;4.70;75.90
18365;DHT22;9309;52.126;11.616;2023-02-01T03:52:53;4.70;76.10
18365;DHT22;9309;52.126;11.616;2023-02-01T03:55:23;4.70;75.90
18365;DHT22;9309;52.126;11.616;2023-02-01T03:57:51;4.70;76.20
18365;DHT22;9309;52.126;11.616;2023-02-01T04:00:19;4.60;76.10
18365;DHT22;9309;52.126;11.616;2023-02-01T04:02:49;4.70;76.00
18365;DHT22;9309;52.126;11.616;2023-02-01T04:05:16;4.60;76.10
18365;DHT22;9309;52.126;11.616;2023-02-01T04:07:53;4.60;76.00
18365;DHT22;9309;52.126;11.616;2023-02-01T04:10:20;4.60;76.20
18365;DHT22;9309;52.126;11.616;2023-02-01T04:12:48;4.50;76.20
18365;DHT22;9309;52.126;11.616;2023-02-01T04:15:14;4.50;76.50
18365;DHT22;9309;52.126;11.616;2023-02-01T04:17:41;4.50;76.40
18365;DHT22;9309;52.126;11.616;2023-02-01T04:20:08;4.50;76.50
18365;DHT22;9309;52.126;11.616;2023-02-01T04:22:35;4.50;76.60
18365;DHT22;9309;52.126;11.616;2023-02-01T04:25:01;4.50;76.70
18365;DHT22;9309;52.126;11.616;2023-02-01T04:27:28;4.50;76.70
18365;DHT22;9309;52.126;11.616;2023-02-01T04:29:56;4.50;76.90
18365;DHT22;9309;52.126;11.616;2023-02-01T04:32:22;4.50;76.70
18365;DHT22;9309;52.126;11.616;2023-02-01T04:34:49;4.40;76.90
18365;DHT22;9309;52.126;11.616;2023-02-01T04:37:15;4.50;77.00
18365;DHT22;9309;52.126;11.616;2023-02-01T04:39:42;4.50;77.10
18365;DHT22;9309;52.126;11.616;2023-02-01T04:42:08;4.50;77.40
18365;DHT22;9309;52.126;11.616;2023-02-01T04:44:35;4.50;77.30
18365;DHT22;9309;52.126;11.616;2023-02-01T04:47:06;4.50;77.50
18365;DHT22;9309;52.126;11.616;2023-02-01T04:49:32;4.50;77.80
18365;DHT22;9309;52.126;11.616;2023-02-01T04:51:59;4.50;77.70
18365;DHT22;9309;52.126;11.616;2023-02-01T04:54:25;4.50;77.90
18365;DHT22;9309;52.126;11.616;2023-02-01T04:56:52;4.50;78.10
18365;DHT22;9309;52.126;11.616;2023-02-01T04:59:18;4.50;78.30
18365;DHT22;9309;52.126;11.616;2023-02-01T05:01:45;4.50;78.40
18365;DHT22;9309;52.126;11.616;2023-02-01T05:04:12;4.60;78.50
18365;DHT22;9309;52.126;11.616;2023-02-01T05:06:39;4.50;79.00
18365;DHT22;9309;52.126;11.616;2023-02-01T05:09:05;4.40;79.30
18365;DHT22;9309;52.126;11.616;2023-02-01T05:11:32;4.40;79.40
18365;DHT22;9309;52.126;11.616;2023-02-01T05:14:16;4.40;79.80
18365;DHT22;9309;52.126;11.616;2023-02-01T05:16:43;4.40;80.40
18365;DHT22;9309;52.126;11.616;2023-02-01T05:19:09;4.40;80.90
18365;DHT22;9309;52.126;11.616;2023-02-01T05:21:37;4.30;81.60
18365;DHT22;9309;52.126;11.616;2023-02-01T05:24:04;4.30;82.00
18365;DHT22;9309;52.126;11.616;2023-02-01T05:26:38;4.30;82.00
18365;DHT22;9309;52.126;11.616;2023-02-01T05:29:05;4.30;82.00
18365;DHT22;9309;52.126;11.616;2023-02-01T05:31:32;4.40;82.20
18365;DHT22;9309;52.126;11.616;2023-02-01T05:33:59;4.40;82.20
18365;DHT22;9309;52.126;11.616;2023-02-01T05:36:25;4.40;82.20
18365;DHT22;9309;52.126;11.616;2023-02-01T05:38:53;4.30;82.40
18365;DHT22;9309;52.126;11.616;2023-02-01T05:41:20;4.30;82.60
18365;DHT22;9309;52.126;11.616;2023-02-01T05:43:46;4.20;82.70
18365;DHT22;9309;52.126;11.616;2023-02-01T05:46:13;4.20;83.10
18365;DHT22;9309;52.126;11.616;2023-02-01T05:48:39;4.20;83.20
18365;DHT22;9309;52.126;11.616;2023-02-01T05:51:06;4.20;82.90
18365;DHT22;9309;52.126;11.616;2023-02-01T05:53:33;4.20;82.90
18365;DHT22;9309;52.126;11.616;2023-02-01T05:56:01;4.20;83.00
18365;DHT22;9309;52.126;11.616;2023-02-01T05:58:27;4.20;82.80
18365;DHT22;9309;52.126;11.616;2023-02-01T06:00:54;4.30;82.70
18365;DHT22;9309;52.126;11.616;2023-02-01T06:03:20;4.30;82.40
18365;DHT22;9309;52.126;11.616;2023-02-01T06:05:47;4.30;82.40
18365;DHT22;9309;52.126;11.616;2023-02-01T06:08:14;4.30;82.60
18365;DHT22;9309;52.126;11.616;2023-02-01T06:10:40;4.30;82.20
18365;DHT22;9309;52.126;11.616;2023-02-01T06:13:08;4.30;82.20
18365;DHT22;9309;52.126;11.616;2023-02-01T06:15:35;4.30;82.10
18365;DHT22;9309;52.126;11.616;2023-02-01T06:18:02;4.30;82.10
18365;DHT22;9309;52.126;11.616;2023-02-01T06:20:29;4.40;82.20
18365;DHT22;9309;52.126;11.616;2023-02-01T06:22:56;4.40;82.30
18365;DHT22;9309;52.126;11.616;2023-02-01T06:25:22;4.40;82.10
18365;DHT22;9309;52.126;11.616;2023-02-01T06:27:49;4.50;82.20
18365;DHT22;9309;52.126;11.616;2023-02-01T06:30:17;4.40;82.30
18365;DHT22;9309;52.126;11.616;2023-02-01T06:32:44;4.40;82.70
18365;DHT22;9309;52.126;11.616;2023-02-01T06:35:18;4.30;83.00
18365;DHT22;9309;52.126;11.616;2023-02-01T06:37:45;4.30;83.60
18365;DHT22;9309;52.126;11.616;2023-02-01T06:40:12;4.30;83.90
18365;DHT22;9309;52.126;11.616;2023-02-01T06:42:38;4.20;85.10
18365;DHT22;9309;52.126;11.616;2023-02-01T06:45:05;4.10;86.50
18365;DHT22;9309;52.126;11.616;2023-02-01T06:47:33;4.00;87.40
18365;DHT22;9309;52.126;11.616;2023-02-01T06:50:00;3.90;87.80
18365;DHT22;9309;52.126;11.616;2023-02-01T06:52:26;3.90;88.00
18365;DHT22;9309;52.126;11.616;2023-02-01T06:54:53;3.80;88.60
18365;DHT22;9309;52.126;11.616;2023-02-01T06:57:19;3.80;88.50
18365;DHT22;9309;52.126;11.616;2023-02-01T06:59:46;3.80;88.30
18365;DHT22;9309;52.126;11.616;2023-02-01T07:02:13;3.90;88.10
18365;DHT22;9309;52.126;11.616;2023-02-01T07:04:41;3.90;87.70
18365;DHT22;9309;52.126;11.616;2023-02-01T07:07:07;3.90;87.50
18365;DHT22;9309;52.126;11.616;2023-02-01T07:09:34;3.90;87.40
18365;DHT22;9309;52.126;11.616;2023-02-01T07:12:00;4.00;87.60
18365;DHT22;9309;52.126;11.616;2023-02-01T07:14:27;4.00;87.30
18365;DHT22;9309;52.126;11.616;2023-02-01T07:16:53;4.00;87.00
18365;DHT22;9309;52.126;11.616;2023-02-01T07:19:20;4.00;86.80
18365;DHT22;9309;52.126;11.616;2023-02-01T07:21:47;4.10;86.70
18365;DHT22;9309;52.126;11.616;2023-02-01T07:24:14;4.10;86.00
18365;DHT22;9309;52.126;11.616;2023-02-01T07:26:41;4.20;85.90
18365;DHT22;9309;52.126;11.616;2023-02-01T07:29:07;4.30;85.40
18365;DHT22;9309;52.126;11.616;2023-02-01T07:31:34;4.30;84.60
18365;DHT22;9309;52.126;11.616;2023-02-01T07:34:00;4.40;84.60
18365;DHT22;9309;52.126;11.616;2023-02-01T07:36:27;4.40;85.50
18365;DHT22;9309;52.126;11.616;2023-02-01T07:38:55;4.30;88.10
18365;DHT22;9309;52.126;11.616;2023-02-01T07:41:24;4.30;88.10
18365;DHT22;9309;52.126;11.616;2023-02-01T07:43:51;4.20;88.80
18365;DHT22;9309;52.126;11.616;2023-02-01T07:46:18;4.00;89.20
18365;DHT22;9309;52.126;11.616;2023-02-01T07:48:45;3.80;90.20
18365;DHT22;9309;52.126;11.616;2023-02-01T07:51:12;3.70;91.00
18365;DHT22;9309;52.126;11.616;2023-02-01T07:53:39;3.70;91.10
18365;DHT22;9309;52.126;11.616;2023-02-01T07:56:11;3.70;91.40
18365;DHT22;9309;52.126;11.616;2023-02-01T07:58:38;3.70;91.40
18365;DHT22;9309;52.126;11.616;2023-02-01T08:01:04;3.80;91.30
18365;DHT22;9309;52.126;11.616;2023-02-01T08:03:46;3.80;91.30
18365;DHT22;9309;52.126;11.616;2023-02-01T08:06:13;3.90;91.20
18365;DHT22;9309;52.126;11.616;2023-02-01T08:08:39;3.90;91.50
18365;DHT22;9309;52.126;11.616;2023-02-01T08:11:06;3.90;91.20
18365;DHT22;9309;52.126;11.616;2023-02-01T08:13:34;3.90;91.10
18365;DHT22;9309;52.126;11.616;2023-02-01T08:16:01;3.90;91.20
18365;DHT22;9309;52.126;11.616;2023-02-01T08:18:27;3.90;91.20
18365;DHT22;9309;52.126;11.616;2023-02-01T08:20:54;4.00;91.40
18365;DHT22;9309;52.126;11.616;2023-02-01T08:23:21;4.00;91.70
18365;DHT22;9309;52.126;11.616;2023-02-01T08:25:48;4.00;92.10
18365;DHT22;9309;52.126;11.616;2023-02-01T08:28:14;3.90;92.00
18365;DHT22;9309;52.126;11.616;2023-02-01T08:30:42;4.00;92.00
18365;DHT22;9309;52.126;11.616;2023-02-01T08:33:09;4.00;92.10
18365;DHT22;9309;52.126;11.616;2023-02-01T08:35:36;4.00;91.40
18365;DHT22;9309;52.126;11.616;2023-02-01T08:38:03;4.00;91.90
18365;DHT22;9309;52.126;11.616;2023-02-01T08:40:30;4.00;91.90
18365;DHT22;9309;52.126;11.616;2023-02-01T08:42:56;4.00;92.20
18365;DHT22;9309;52.126;11.616;2023-02-01T08:45:24;4.00;92.50
18365;DHT22;9309;52.126;11.616;2023-02-01T08:47:52;4.10;92.70
18365;DHT22;9309;52.126;11.616;2023-02-01T08:50:20;4.00;92.70
18365;DHT22;9309;52.126;11.616;2023-02-01T08:52:47;4.10;92.80
18365;DHT22;9309;52.126;11.616;2023-02-01T08:55:14;4.00;92.80
18365;DHT22;9309;52.126;11.616;2023-02-01T08:57:40;4.10;92.50
18365;DHT22;9309;52.126;11.616;2023-02-01T09:00:08;4.10;92.30
18365;DHT22;9309;52.126;11.616;2023-02-01T09:02:35;4.00;91.70
18365;DHT22;9309;52.126;11.616;2023-02-01T09:05:03;4.00;92.20
18365;DHT22;9309;52.126;11.616;2023-02-01T09:07:30;3.90;92.40
18365;DHT22;9309;52.126;11.616;2023-02-01T09:09:56;4.00;92.90
18365;DHT22;9309;52.126;11.616;2023-02-01T09:12:26;4.00;92.10
18365;DHT22;9309;52.126;11.616;2023-02-01T09:14:52;4.10;92.10
18365;DHT22;9309;52.126;11.616;2023-02-01T09:17:19;4.10;92.20
18365;DHT22;9309;52.126;11.616;2023-02-01T09:19:45;4.10;92.10
18365;DHT22;9309;52.126;11.616;2023-02-01T09:22:13;4.20;91.70
18365;DHT22;9309;52.126;11.616;2023-02-01T09:24:41;4.30;91.80
18365;DHT22;9309;52.126;11.616;2023-02-01T09:27:07;4.30;90.90
18365;DHT22;9309;52.126;11.616;2023-02-01T09:29:34;4.40;90.80
18365;DHT22;9309;52.126;11.616;2023-02-01T09:32:00;4.50;90.50
18365;DHT22;9309;52.126;11.616;2023-02-01T09:34:27;4.50;89.50
18365;DHT22;9309;52.126;11.616;2023-02-01T09:36:53;4.50;89.10
18365;DHT22;9309;52.126;11.616;2023-02-01T09:39:21;4.50;88.80
18365;DHT22;9309;52.126;11.616;2023-02-01T09:41:51;4.50;89.10
18365;DHT22;9309;52.126;11.616;2023-02-01T09:44:24;4.50;89.00
18365;DHT22;9309;52.126;11.616;2023-02-01T09:46:57;4.50;88.70
18365;DHT22;9309;52.126;11.616;2023-02-01T09:49:26;4.50;88.80
18365;DHT22;9309;52.126;11.616;2023-02-01T09:51:53;4.40;89.10
18365;DHT22;9309;52.126;11.616;2023-02-01T09:54:22;4.50;88.80
18365;DHT22;9309;52.126;11.616;2023-02-01T09:56:49;4.60;87.60
18365;DHT22;9309;52.126;11.616;2023-02-01T09:59:21;4.80;86.80
18365;DHT22;9309;52.126;11.616;2023-02-01T10:01:49;5.00;86.40
18365;DHT22;9309;52.126;11.616;2023-02-01T10:04:16;5.00;85.40
18365;DHT22;9309;52.126;11.616;2023-02-01T10:06:47;4.60;87.00
18365;DHT22;9309;52.126;11.616;2023-02-01T10:09:25;4.40;88.50
18365;DHT22;9309;52.126;11.616;2023-02-01T10:12:04;4.30;89.60
18365;DHT22;9309;52.126;11.616;2023-02-01T10:14:41;4.30;90.50
18365;DHT22;9309;52.126;11.616;2023-02-01T10:17:14;4.30;89.60
18365;DHT22;9309;52.126;11.616;2023-02-01T10:19:48;4.40;90.10
18365;DHT22;9309;52.126;11.616;2023-02-01T10:22:24;4.80;88.70
18365;DHT22;9309;52.126;11.616;2023-02-01T10:24:57;5.10;88.00
18365;DHT22;9309;52.126;11.616;2023-02-01T10:27:29;5.10;87.00
18365;DHT22;9309;52.126;11.616;2023-02-01T10:29:59;4.80;88.50
18365;DHT22;9309;52.126;11.616;2023-02-01T10:32:28;4.50;90.40
18365;DHT22;9309;52.126;11.616;2023-02-01T10:34:57;4.20;91.60
18365;DHT22;9309;52.126;11.616;2023-02-01T10:37:25;4.00;92.10
18365;DHT22;9309;52.126;11.616;2023-02-01T10:39:53;4.00;91.90
18365;DHT22;9309;52.126;11.616;2023-02-01T10:42:24;3.90;92.70
18365;DHT22;9309;52.126;11.616;2023-02-01T10:44:51;4.00;92.70
18365;DHT22;9309;52.126;11.616;2023-02-01T10:47:18;4.00;93.00
18365;DHT22;9309;52.126;11.616;2023-02-01T10:49:47;4.20;93.00
18365;DHT22;9309;52.126;11.616;2023-02-01T10:52:17;4.30;92.70
18365;DHT22;9309;52.126;11.616;2023-02-01T10:54:46;4.30;91.90
18365;DHT22;9309;52.126;11.616;2023-02-01T10:57:19;4.40;91.60
18365;DHT22;9309;52.126;11.616;2023-02-01T10:59:47;4.50;91.60
18365;DHT22;9309;52.126;11.616;2023-02-01T11:02:16;4.70;91.30
18365;DHT22;9309;52.126;11.616;2023-02-01T11:04:45;4.80;90.50
18365;DHT22;9309;52.126;11.616;2023-02-01T11:07:23;4.80;89.30
18365;DHT22;9309;52.126;11.616;2023-02-01T11:09:51;4.90;89.20
18365;DHT22;9309;52.126;11.616;2023-02-01T11:12:29;4.90;89.40
18365;DHT22;9309;52.126;11.616;2023-02-01T11:14:59;4.90;89.50
18365;DHT22;9309;52.126;11.616;2023-02-01T11:17:28;4.90;90.40
18365;DHT22;9309;52.126;11.616;2023-02-01T11:19:58;4.80;91.40
18365;DHT22;9309;52.126;11.616;2023-02-01T11:22:25;4.80;92.60
18365;DHT22;9309;52.126;11.616;2023-02-01T11:24:53;4.70;92.50
18365;DHT22;9309;52.126;11.616;2023-02-01T11:27:21;4.60;92.50
18365;DHT22;9309;52.126;11.616;2023-02-01T11:29:49;4.60;92.80
18365;DHT22;9309;52.126;11.616;2023-02-01T11:32:18;4.60;93.30
18365;DHT22;9309;52.126;11.616;2023-02-01T11:34:47;4.60;92.40
18365;DHT22;9309;52.126;11.616;2023-02-01T11:37:15;4.50;92.40
18365;DHT22;9309;52.126;11.616;2023-02-01T11:39:43;4.50;93.40
18365;DHT22;9309;52.126;11.616;2023-02-01T11:42:19;4.70;92.40
18365;DHT22;9309;52.126;11.616;2023-02-01T11:44:46;4.80;92.50
18365;DHT22;9309;52.126;11.616;2023-02-01T11:47:24;4.90;91.30
18365;DHT22;9309;52.126;11.616;2023-02-01T11:49:51;4.90;92.20
18365;DHT22;9309;52.126;11.616;2023-02-01T11:52:24;5.00;91.10
18365;DHT22;9309;52.126;11.616;2023-02-01T11:55:02;5.00;91.70
18365;DHT22;9309;52.126;11.616;2023-02-01T11:57:37;4.90;90.20
18365;DHT22;9309;52.126;11.616;2023-02-01T12:00:15;4.80;90.70
18365;DHT22;9309;52.126;11.616;2023-02-01T12:02:57;4.90;90.40
18365;DHT22;9309;52.126;11.616;2023-02-01T12:05:34;5.10;89.30
18365;DHT22;9309;52.126;11.616;2023-02-01T12:08:16;5.20;89.20
18365;DHT22;9309;52.126;11.616;2023-02-01T12:10:48;5.30;87.40
18365;DHT22;9309;52.126;11.616;2023-02-01T12:13:20;5.40;87.00
18365;DHT22;9309;52.126;11.616;2023-02-01T12:15:52;5.40;85.20
18365;DHT22;9309;52.126;11.616;2023-02-01T12:18:39;5.60;83.60
18365;DHT22;9309;52.126;11.616;2023-02-01T12:21:22;5.70;83.40
18365;DHT22;9309;52.126;11.616;2023-02-01T12:23:57;5.80;82.30
18365;DHT22;9309;52.126;11.616;2023-02-01T12:26:35;6.00;80.70
18365;DHT22;9309;52.126;11.616;2023-02-01T12:29:09;6.00;81.40
18365;DHT22;9309;52.126;11.616;2023-02-01T12:31:41;6.10;79.40
18365;DHT22;9309;52.126;11.616;2023-02-01T12:34:23;6.20;78.20
18365;DHT22;9309;52.126;11.616;2023-02-01T12:36:53;6.20;76.60
18365;DHT22;9309;52.126;11.616;2023-02-01T12:39:23;6.30;78.30
18365;DHT22;9309;52.126;11.616;2023-02-01T12:41:55;6.70;77.10
18365;DHT22;9309;52.126;11.616;2023-02-01T12:44:25;7.00;76.40
18365;DHT22;9309;52.126;11.616;2023-02-01T12:46:53;7.00;75.00
18365;DHT22;9309;52.126;11.616;2023-02-01T12:49:21;7.00;73.10
18365;DHT22;9309;52.126;11.616;2023-02-01T12:51:52;7.00;73.60
18365;DHT22;9309;52.126;11.616;2023-02-01T12:54:22;7.10;74.00
18365;DHT22;9309;52.126;11.616;2023-02-01T12:56:54;7.10;72.10
18365;DHT22;9309;52.126;11.616;2023-02-01T12:59:26;7.00;72.30
18365;DHT22;9309;52.126;11.616;2023-02-01T13:01:58;6.80;71.90
18365;DHT22;9309;52.126;11.616;2023-02-01T13:04:32;6.70;71.90
18365;DHT22;9309;52.126;11.616;2023-02-01T13:07:06;6.60;73.10
18365;DHT22;9309;52.126;11.616;2023-02-01T13:09:38;6.50;72.90
18365;DHT22;9309;52.126;11.616;2023-02-01T13:12:12;6.50;73.90
18365;DHT22;9309;52.126;11.616;2023-02-01T13:14:43;6.40;72.60
18365;DHT22;9309;52.126;11.616;2023-02-01T13:17:14;6.50;73.50
18365;DHT22;9309;52.126;11.616;2023-02-01T13:19:46;6.50;73.60
18365;DHT22;9309;52.126;11.616;2023-02-01T13:22:20;6.50;73.10
18365;DHT22;9309;52.126;11.616;2023-02-01T13:24:50;6.40;72.50
18365;DHT22;9309;52.126;11.616;2023-02-01T13:27:18;6.40;73.10
18365;DHT22;9309;52.126;11.616;2023-02-01T13:29:51;6.30;72.90
18365;DHT22;9309;52.126;11.616;2023-02-01T13:35:34;5.90;78.80
18365;DHT22;9309;52.126;11.616;2023-02-01T13:38:22;5.60;81.70
18365;DHT22;9309;52.126;11.616;2023-02-01T13:41:04;5.30;81.90
18365;DHT22;9309;52.126;11.616;2023-02-01T13:43:34;5.20;83.20
18365;DHT22;9309;52.126;11.616;2023-02-01T13:46:05;5.10;83.90
18365;DHT22;9309;52.126;11.616;2023-02-01T13:48:38;5.10;83.10
18365;DHT22;9309;52.126;11.616;2023-02-01T13:51:06;5.20;83.50
18365;DHT22;9309;52.126;11.616;2023-02-01T13:53:36;5.20;82.90
18365;DHT22;9309;52.126;11.616;2023-02-01T13:56:08;5.20;81.80
18365;DHT22;9309;52.126;11.616;2023-02-01T13:58:38;5.20;82.30
18365;DHT22;9309;52.126;11.616;2023-02-01T14:07:20;5.00;82.00
18365;DHT22;9309;52.126;11.616;2023-02-01T14:09:49;5.00;83.30
18365;DHT22;9309;52.126;11.616;2023-02-01T14:12:46;4.90;83.80
18365;DHT22;9309;52.126;11.616;2023-02-01T14:15:25;5.00;84.40
18365;DHT22;9309;52.126;11.616;2023-02-01T14:17:52;5.00;84.00
18365;DHT22;9309;52.126;11.616;2023-02-01T14:20:44;5.10;84.30
18365;DHT22;9309;52.126;11.616;2023-02-01T14:23:28;5.10;84.90
18365;DHT22;9309;52.126;11.616;2023-02-01T14:26:18;5.10;84.70
18365;DHT22;9309;52.126;11.616;2023-02-01T14:29:03;5.00;85.70
18365;DHT22;9309;52.126;11.616;2023-02-01T14:31:52;5.00;85.40
18365;DHT22;9309;52.126;11.616;2023-02-01T14:34:24;4.90;86.70
18365;DHT22;9309;52.126;11.616;2023-02-01T14:36:57;4.90;87.60
18365;DHT22;9309;52.126;11.616;2023-02-01T14:39:38;4.80;88.10
18365;DHT22;9309;52.126;11.616;2023-02-01T14:42:20;4.70;89.70
18365;DHT22;9309;52.126;11.616;2023-02-01T14:44:49;4.40;90.80
18365;DHT22;9309;52.126;11.616;2023-02-01T14:47:31;4.10;91.20
18365;DHT22;9309;52.126;11.616;2023-02-01T14:50:31;3.90;93.10
18365;DHT22;9309;52.126;11.616;2023-02-01T14:53:16;3.80;92.50
18365;DHT22;9309;52.126;11.616;2023-02-01T14:55:48;3.70;92.80
18365;DHT22;9309;52.126;11.616;2023-02-01T14:58:23;3.70;92.60
18365;DHT22;9309;52.126;11.616;2023-02-01T15:00:53;3.60;92.80
18365;DHT22;9309;52.126;11.616;2023-02-01T15:03:38;3.60;93.20
18365;DHT22;9309;52.126;11.616;2023-02-01T15:06:18;3.70;92.80
18365;DHT22;9309;52.126;11.616;2023-02-01T15:09:04;3.70;92.80
18365;DHT22;9309;52.126;11.616;2023-02-01T15:11:53;3.70;92.40
18365;DHT22;9309;52.126;11.616;2023-02-01T15:14:21;3.70;92.10
18365;DHT22;9309;52.126;11.616;2023-02-01T15:16:48;3.70;91.90
18365;DHT22;9309;52.126;11.616;2023-02-01T15:19:20;3.70;91.20
18365;DHT22;9309;52.126;11.616;2023-02-01T15:21:49;3.80;90.00
18365;DHT22;9309;52.126;11.616;2023-02-01T15:24:22;3.80;90.10
18365;DHT22;9309;52.126;11.616;2023-02-01T15:26:49;3.90;89.30
18365;DHT22;9309;52.126;11.616;2023-02-01T15:29:17;3.90;88.80
18365;DHT22;9309;52.126;11.616;2023-02-01T15:31:47;3.90;89.20
18365;DHT22;9309;52.126;11.616;2023-02-01T15:34:15;3.90;89.30
18365;DHT22;9309;52.126;11.616;2023-02-01T15:36:43;4.00;89.20
18365;DHT22;9309;52.126;11.616;2023-02-01T15:39:28;4.00;89.40
18365;DHT22;9309;52.126;11.616;2023-02-01T15:41:57;3.90;89.60
18365;DHT22;9309;52.126;11.616;2023-02-01T15:44:33;3.90;89.80
18365;DHT22;9309;52.126;11.616;2023-02-01T15:47:06;3.80;89.80
18365;DHT22;9309;52.126;11.616;2023-02-01T15:49:37;3.80;89.30
18365;DHT22;9309;52.126;11.616;2023-02-01T15:52:16;3.70;89.10
18365;DHT22;9309;52.126;11.616;2023-02-01T15:54:48;3.70;89.10
18365;DHT22;9309;52.126;11.616;2023-02-01T15:57:20;3.60;88.60
18365;DHT22;9309;52.126;11.616;2023-02-01T15:59:48;3.60;89.00
18365;DHT22;9309;52.126;11.616;2023-02-01T16:02:28;3.60;88.20
18365;DHT22;9309;52.126;11.616;2023-02-01T16:04:59;3.50;88.00
18365;DHT22;9309;52.126;11.616;2023-02-01T16:07:29;3.40;88.70
18365;DHT22;9309;52.126;11.616;2023-02-01T16:09:58;3.40;88.60
18365;DHT22;9309;52.126;11.616;2023-02-01T16:12:30;3.30;88.50
18365;DHT22;9309;52.126;11.616;2023-02-01T16:14:57;3.30;88.80
18365;DHT22;9309;52.126;11.616;2023-02-01T16:17:24;3.30;88.30